Clifford, Indiana
Current Conditions -  °F | °C
As of 10:53 AM on Thursday 27 Nov 2014 (Local Time) from KGEZ Reporting Station
Light Snow Light Snow  
Wind Chill: 21°   Ceiling: 1200
Heat Index: 30°   Visibility: 1.5mi
Dew Point: 25°   Wind: 10mph
Humidity: 82%   Direction: 280°W
Pressure: 30.31"   Gusts: NA
Location:  39.28°N, 85.87°W
Report Text: KGEZ 271553Z AUTO 28009KT 1 1/2SM -SN BKN012 BKN023 OVC029 M01/M04 A3031 RMK AO2 SLP273 P0000 T10111039
Loading
Personal Weather Stations






























Interactive Weather Map New forecast layout! Learn more

10-Day Weather Forecast

Advertisements
Track Severe Weather on mobile